sensor_id;sensor_type;location;lat;lon;timestamp;pressure;altitude;pressure_sealevel;temperature;humidity
76726;BME280;65651;53.154;17.916;2023-03-31T00:00:27;99842.77;;;8.73;84.28
76726;BME280;65651;53.154;17.916;2023-03-31T00:03:10;99845.70;;;8.71;83.94
76726;BME280;65651;53.154;17.916;2023-03-31T00:05:38;99840.48;;;8.71;84.31
76726;BME280;65651;53.154;17.916;2023-03-31T00:08:05;99839.36;;;8.70;84.05
76726;BME280;65651;53.154;17.916;2023-03-31T00:10:35;99843.89;;;8.69;84.13
76726;BME280;65651;53.154;17.916;2023-03-31T00:13:02;99840.23;;;8.68;84.26
76726;BME280;65651;53.154;17.916;2023-03-31T00:15:33;99833.45;;;8.70;84.27
76726;BME280;65651;53.154;17.916;2023-03-31T00:18:00;99827.13;;;8.70;84.48
76726;BME280;65651;53.154;17.916;2023-03-31T00:20:28;99824.52;;;8.71;84.19
76726;BME280;65651;53.154;17.916;2023-03-31T00:22:55;99824.04;;;8.73;84.44
76726;BME280;65651;53.154;17.916;2023-03-31T00:25:23;99826.10;;;8.75;84.53
76726;BME280;65651;53.154;17.916;2023-03-31T00:27:51;99827.45;;;8.76;84.48
76726;BME280;65651;53.154;17.916;2023-03-31T00:30:19;99827.16;;;8.77;84.63
76726;BME280;65651;53.154;17.916;2023-03-31T00:32:46;99826.88;;;8.78;84.44
76726;BME280;65651;53.154;17.916;2023-03-31T00:35:14;99829.13;;;8.79;84.65
76726;BME280;65651;53.154;17.916;2023-03-31T00:37:41;99828.97;;;8.81;84.64
76726;BME280;65651;53.154;17.916;2023-03-31T00:40:10;99822.44;;;8.81;84.57
76726;BME280;65651;53.154;17.916;2023-03-31T00:42:42;99818.38;;;8.82;84.69
76726;BME280;65651;53.154;17.916;2023-03-31T00:47:46;99810.70;;;8.87;84.72
76726;BME280;65651;53.154;17.916;2023-03-31T00:50:18;99801.42;;;8.89;84.71
76726;BME280;65651;53.154;17.916;2023-03-31T00:52:54;99800.39;;;8.93;84.77
76726;BME280;65651;53.154;17.916;2023-03-31T00:55:26;99795.90;;;8.94;84.76
76726;BME280;65651;53.154;17.916;2023-03-31T00:57:56;99793.35;;;8.97;84.66
76726;BME280;65651;53.154;17.916;2023-03-31T01:00:24;99791.17;;;8.97;84.68
76726;BME280;65651;53.154;17.916;2023-03-31T01:02:55;99785.60;;;8.97;84.64
76726;BME280;65651;53.154;17.916;2023-03-31T01:05:41;99780.83;;;8.98;84.68
76726;BME280;65651;53.154;17.916;2023-03-31T01:08:10;99780.63;;;8.98;84.55
76726;BME280;65651;53.154;17.916;2023-03-31T01:10:44;99779.92;;;8.98;84.67
76726;BME280;65651;53.154;17.916;2023-03-31T01:13:14;99782.62;;;9.00;84.79
76726;BME280;65651;53.154;17.916;2023-03-31T01:15:42;99781.33;;;9.02;84.58
76726;BME280;65651;53.154;17.916;2023-03-31T01:18:12;99779.24;;;9.05;84.58
76726;BME280;65651;53.154;17.916;2023-03-31T01:26:15;99763.89;;;9.12;84.45
76726;BME280;65651;53.154;17.916;2023-03-31T01:42:54;99763.98;;;8.88;84.79
76726;BME280;65651;53.154;17.916;2023-03-31T01:48:15;99760.55;;;8.76;84.94
76726;BME280;65651;53.154;17.916;2023-03-31T01:50:47;99755.86;;;8.71;84.91
76726;BME280;65651;53.154;17.916;2023-03-31T01:53:32;99755.02;;;8.65;85.15
76726;BME280;65651;53.154;17.916;2023-03-31T01:58:50;99752.20;;;8.52;84.77
76726;BME280;65651;53.154;17.916;2023-03-31T02:01:50;99753.58;;;8.46;84.86
76726;BME280;65651;53.154;17.916;2023-03-31T02:04:35;99757.77;;;8.36;84.87
76726;BME280;65651;53.154;17.916;2023-03-31T02:07:23;99755.96;;;8.29;84.98
76726;BME280;65651;53.154;17.916;2023-03-31T02:10:00;99751.83;;;8.24;85.03
76726;BME280;65651;53.154;17.916;2023-03-31T02:12:31;99747.00;;;8.20;85.14
76726;BME280;65651;53.154;17.916;2023-03-31T02:15:01;99741.86;;;8.16;84.74
76726;BME280;65651;53.154;17.916;2023-03-31T02:17:30;99745.13;;;8.10;84.58
76726;BME280;65651;53.154;17.916;2023-03-31T02:20:02;99742.64;;;8.01;84.59
76726;BME280;65651;53.154;17.916;2023-03-31T02:22:35;99749.38;;;7.93;84.78
76726;BME280;65651;53.154;17.916;2023-03-31T02:25:05;99756.26;;;7.82;84.73
76726;BME280;65651;53.154;17.916;2023-03-31T02:27:41;99753.43;;;7.73;84.82
76726;BME280;65651;53.154;17.916;2023-03-31T02:30:12;99751.27;;;7.64;84.68
76726;BME280;65651;53.154;17.916;2023-03-31T02:32:41;99750.71;;;7.59;84.94
76726;BME280;65651;53.154;17.916;2023-03-31T02:35:16;99750.02;;;7.51;85.13
76726;BME280;65651;53.154;17.916;2023-03-31T02:37:45;99747.11;;;7.44;84.78
76726;BME280;65651;53.154;17.916;2023-03-31T02:40:18;99748.04;;;7.38;84.91
76726;BME280;65651;53.154;17.916;2023-03-31T02:42:47;99751.98;;;7.31;84.94
76726;BME280;65651;53.154;17.916;2023-03-31T02:45:40;99753.40;;;7.26;85.03
76726;BME280;65651;53.154;17.916;2023-03-31T02:48:32;99750.35;;;7.19;85.12
76726;BME280;65651;53.154;17.916;2023-03-31T03:11:13;99728.63;;;6.89;85.18
76726;BME280;65651;53.154;17.916;2023-03-31T03:13:54;99727.86;;;6.87;85.45
76726;BME280;65651;53.154;17.916;2023-03-31T03:16:34;99726.75;;;6.86;85.25
76726;BME280;65651;53.154;17.916;2023-03-31T03:19:05;99727.19;;;6.85;85.79
76726;BME280;65651;53.154;17.916;2023-03-31T03:21:33;99726.59;;;6.86;85.75
76726;BME280;65651;53.154;17.916;2023-03-31T03:24:01;99727.19;;;6.89;85.68
76726;BME280;65651;53.154;17.916;2023-03-31T03:26:28;99724.92;;;6.90;85.88
76726;BME280;65651;53.154;17.916;2023-03-31T03:28:56;99725.57;;;6.93;85.68
76726;BME280;65651;53.154;17.916;2023-03-31T03:31:24;99727.42;;;6.96;85.95
76726;BME280;65651;53.154;17.916;2023-03-31T03:33:52;99723.10;;;6.98;85.86
76726;BME280;65651;53.154;17.916;2023-03-31T03:36:20;99724.17;;;7.00;85.86
76726;BME280;65651;53.154;17.916;2023-03-31T03:38:49;99717.35;;;7.03;86.00
76726;BME280;65651;53.154;17.916;2023-03-31T03:41:16;99714.23;;;7.05;85.59
76726;BME280;65651;53.154;17.916;2023-03-31T03:43:44;99716.94;;;7.09;85.61
76726;BME280;65651;53.154;17.916;2023-03-31T03:46:11;99721.60;;;7.12;85.99
76726;BME280;65651;53.154;17.916;2023-03-31T03:48:38;99725.55;;;7.14;85.91
76726;BME280;65651;53.154;17.916;2023-03-31T03:51:09;99721.39;;;7.16;86.06
76726;BME280;65651;53.154;17.916;2023-03-31T03:53:36;99719.74;;;7.16;86.05
76726;BME280;65651;53.154;17.916;2023-03-31T03:56:04;99719.75;;;7.17;85.87
76726;BME280;65651;53.154;17.916;2023-03-31T03:58:31;99718.02;;;7.16;85.96
76726;BME280;65651;53.154;17.916;2023-03-31T04:00:58;99717.29;;;7.14;86.12
76726;BME280;65651;53.154;17.916;2023-03-31T04:03:25;99712.84;;;7.12;85.78
76726;BME280;65651;53.154;17.916;2023-03-31T04:05:53;99704.36;;;7.10;85.97
76726;BME280;65651;53.154;17.916;2023-03-31T04:08:20;99700.69;;;7.07;86.03
76726;BME280;65651;53.154;17.916;2023-03-31T04:10:48;99699.36;;;7.04;85.95
76726;BME280;65651;53.154;17.916;2023-03-31T04:13:17;99703.78;;;7.01;86.10
76726;BME280;65651;53.154;17.916;2023-03-31T04:15:45;99702.09;;;6.97;85.88
76726;BME280;65651;53.154;17.916;2023-03-31T04:18:13;99699.52;;;6.95;85.94
76726;BME280;65651;53.154;17.916;2023-03-31T04:20:49;99699.63;;;6.94;85.98
76726;BME280;65651;53.154;17.916;2023-03-31T04:23:31;99699.98;;;6.94;85.87
76726;BME280;65651;53.154;17.916;2023-03-31T04:25:59;99694.92;;;6.94;85.88
76726;BME280;65651;53.154;17.916;2023-03-31T04:28:27;99691.92;;;6.96;86.05
76726;BME280;65651;53.154;17.916;2023-03-31T04:31:02;99693.43;;;7.01;85.97
76726;BME280;65651;53.154;17.916;2023-03-31T04:33:29;99690.46;;;7.04;85.86
76726;BME280;65651;53.154;17.916;2023-03-31T04:35:56;99688.48;;;7.08;86.12
76726;BME280;65651;53.154;17.916;2023-03-31T04:38:24;99690.49;;;7.13;86.16
76726;BME280;65651;53.154;17.916;2023-03-31T04:40:53;99687.20;;;7.17;85.81
76726;BME280;65651;53.154;17.916;2023-03-31T04:43:20;99686.83;;;7.21;85.88
76726;BME280;65651;53.154;17.916;2023-03-31T04:45:48;99693.15;;;7.26;85.96
76726;BME280;65651;53.154;17.916;2023-03-31T04:48:16;99691.27;;;7.31;86.09
76726;BME280;65651;53.154;17.916;2023-03-31T04:50:45;99689.39;;;7.35;86.10
76726;BME280;65651;53.154;17.916;2023-03-31T04:53:12;99682.67;;;7.40;86.06
76726;BME280;65651;53.154;17.916;2023-03-31T04:55:40;99683.17;;;7.44;86.06
76726;BME280;65651;53.154;17.916;2023-03-31T04:58:07;99675.75;;;7.49;86.08
76726;BME280;65651;53.154;17.916;2023-03-31T05:00:35;99675.71;;;7.57;86.36
76726;BME280;65651;53.154;17.916;2023-03-31T05:03:02;99679.11;;;7.66;86.00
76726;BME280;65651;53.154;17.916;2023-03-31T05:05:30;99677.52;;;7.74;86.04
76726;BME280;65651;53.154;17.916;2023-03-31T05:07:58;99671.67;;;7.79;86.27
76726;BME280;65651;53.154;17.916;2023-03-31T05:10:25;99670.36;;;7.88;86.09
76726;BME280;65651;53.154;17.916;2023-03-31T05:12:56;99665.50;;;7.95;85.97
76726;BME280;65651;53.154;17.916;2023-03-31T05:15:23;99660.24;;;8.01;85.69
76726;BME280;65651;53.154;17.916;2023-03-31T05:17:51;99663.26;;;8.05;85.84
76726;BME280;65651;53.154;17.916;2023-03-31T05:20:19;99660.02;;;8.06;85.61
76726;BME280;65651;53.154;17.916;2023-03-31T05:22:46;99654.44;;;8.07;85.65
76726;BME280;65651;53.154;17.916;2023-03-31T05:25:14;99655.18;;;8.08;85.65
76726;BME280;65651;53.154;17.916;2023-03-31T05:27:45;99650.91;;;8.10;85.61
76726;BME280;65651;53.154;17.916;2023-03-31T05:30:14;99653.66;;;8.15;85.61
76726;BME280;65651;53.154;17.916;2023-03-31T05:32:42;99651.69;;;8.22;85.67
76726;BME280;65651;53.154;17.916;2023-03-31T05:35:10;99650.94;;;8.29;85.59
76726;BME280;65651;53.154;17.916;2023-03-31T05:37:37;99653.02;;;8.36;85.45
76726;BME280;65651;53.154;17.916;2023-03-31T05:40:05;99653.20;;;8.43;85.21
76726;BME280;65651;53.154;17.916;2023-03-31T05:42:36;99650.09;;;8.52;85.36
76726;BME280;65651;53.154;17.916;2023-03-31T05:45:04;99650.70;;;8.58;85.54
76726;BME280;65651;53.154;17.916;2023-03-31T05:47:31;99644.93;;;8.62;85.59
76726;BME280;65651;53.154;17.916;2023-03-31T05:49:59;99643.15;;;8.68;85.54
76726;BME280;65651;53.154;17.916;2023-03-31T05:52:26;99642.20;;;8.72;85.40
76726;BME280;65651;53.154;17.916;2023-03-31T05:54:54;99645.42;;;8.77;85.64
76726;BME280;65651;53.154;17.916;2023-03-31T05:57:21;99639.63;;;8.83;85.55
76726;BME280;65651;53.154;17.916;2023-03-31T05:59:48;99635.27;;;8.92;85.48
76726;BME280;65651;53.154;17.916;2023-03-31T06:02:15;99641.59;;;8.98;85.13
76726;BME280;65651;53.154;17.916;2023-03-31T06:04:43;99633.44;;;9.04;85.30
76726;BME280;65651;53.154;17.916;2023-03-31T06:07:10;99637.80;;;9.07;84.98
76726;BME280;65651;53.154;17.916;2023-03-31T06:09:38;99641.71;;;9.10;85.05
76726;BME280;65651;53.154;17.916;2023-03-31T06:12:09;99639.08;;;9.19;85.01
76726;BME280;65651;53.154;17.916;2023-03-31T06:14:38;99640.71;;;9.22;84.91
76726;BME280;65651;53.154;17.916;2023-03-31T06:17:05;99637.91;;;9.23;84.87
76726;BME280;65651;53.154;17.916;2023-03-31T06:19:33;99637.35;;;9.25;84.94
76726;BME280;65651;53.154;17.916;2023-03-31T06:22:00;99633.63;;;9.33;84.74
76726;BME280;65651;53.154;17.916;2023-03-31T06:24:28;99632.98;;;9.44;84.69
76726;BME280;65651;53.154;17.916;2023-03-31T06:26:55;99630.89;;;9.56;84.57
76726;BME280;65651;53.154;17.916;2023-03-31T06:29:22;99629.45;;;9.69;84.49
76726;BME280;65651;53.154;17.916;2023-03-31T06:31:50;99629.94;;;9.78;84.50
76726;BME280;65651;53.154;17.916;2023-03-31T06:34:17;99627.98;;;9.82;84.33
76726;BME280;65651;53.154;17.916;2023-03-31T06:36:45;99620.34;;;9.91;84.22
76726;BME280;65651;53.154;17.916;2023-03-31T06:39:16;99619.73;;;9.99;84.16
76726;BME280;65651;53.154;17.916;2023-03-31T06:41:43;99620.09;;;10.04;84.18
76726;BME280;65651;53.154;17.916;2023-03-31T06:44:10;99619.20;;;10.07;83.85
76726;BME280;65651;53.154;17.916;2023-03-31T06:46:38;99618.63;;;10.17;83.93
76726;BME280;65651;53.154;17.916;2023-03-31T06:49:05;99620.30;;;10.33;83.56
76726;BME280;65651;53.154;17.916;2023-03-31T06:51:32;99617.85;;;10.39;83.50
76726;BME280;65651;53.154;17.916;2023-03-31T06:54:00;99614.60;;;10.47;83.37
76726;BME280;65651;53.154;17.916;2023-03-31T06:56:27;99611.70;;;10.65;83.24
76726;BME280;65651;53.154;17.916;2023-03-31T06:58:54;99609.41;;;10.98;82.91
76726;BME280;65651;53.154;17.916;2023-03-31T07:01:22;99609.41;;;11.39;82.80
76726;BME280;65651;53.154;17.916;2023-03-31T07:03:49;99609.69;;;11.63;82.51
76726;BME280;65651;53.154;17.916;2023-03-31T07:06:17;99609.64;;;11.61;82.06
76726;BME280;65651;53.154;17.916;2023-03-31T07:08:44;99613.70;;;11.58;81.83
76726;BME280;65651;53.154;17.916;2023-03-31T07:11:12;99619.70;;;11.55;81.72
76726;BME280;65651;53.154;17.916;2023-03-31T07:13:39;99618.36;;;11.51;81.54
76726;BME280;65651;53.154;17.916;2023-03-31T07:16:06;99622.89;;;11.38;81.39
76726;BME280;65651;53.154;17.916;2023-03-31T07:18:35;99620.39;;;11.36;81.54
76726;BME280;65651;53.154;17.916;2023-03-31T07:21:04;99620.38;;;11.36;81.31
76726;BME280;65651;53.154;17.916;2023-03-31T07:23:34;99625.44;;;11.30;81.39
76726;BME280;65651;53.154;17.916;2023-03-31T07:26:01;99625.77;;;11.19;81.23
76726;BME280;65651;53.154;17.916;2023-03-31T07:28:29;99624.06;;;11.15;81.22
76726;BME280;65651;53.154;17.916;2023-03-31T07:30:57;99619.79;;;11.16;81.11
76726;BME280;65651;53.154;17.916;2023-03-31T07:33:24;99618.30;;;11.15;80.96
76726;BME280;65651;53.154;17.916;2023-03-31T07:35:52;99616.67;;;11.22;81.18
76726;BME280;65651;53.154;17.916;2023-03-31T07:38:19;99607.48;;;11.33;80.96
76726;BME280;65651;53.154;17.916;2023-03-31T07:40:46;99608.73;;;11.39;80.87
76726;BME280;65651;53.154;17.916;2023-03-31T07:43:14;99605.01;;;11.45;80.67
76726;BME280;65651;53.154;17.916;2023-03-31T07:45:41;99602.20;;;11.52;80.55
76726;BME280;65651;53.154;17.916;2023-03-31T07:48:08;99597.39;;;11.53;80.11
76726;BME280;65651;53.154;17.916;2023-03-31T07:50:35;99596.31;;;11.52;80.00
76726;BME280;65651;53.154;17.916;2023-03-31T07:53:04;99597.36;;;11.64;79.64
76726;BME280;65651;53.154;17.916;2023-03-31T07:55:31;99591.60;;;11.74;79.60
76726;BME280;65651;53.154;17.916;2023-03-31T07:57:58;99586.45;;;11.86;79.26
76726;BME280;65651;53.154;17.916;2023-03-31T08:00:26;99582.39;;;11.97;79.21
76726;BME280;65651;53.154;17.916;2023-03-31T08:02:54;99578.13;;;12.12;79.32
76726;BME280;65651;53.154;17.916;2023-03-31T08:05:24;99569.34;;;12.33;79.15
76726;BME280;65651;53.154;17.916;2023-03-31T08:07:51;99566.30;;;12.51;78.48
76726;BME280;65651;53.154;17.916;2023-03-31T08:10:23;99568.93;;;12.74;77.87
76726;BME280;65651;53.154;17.916;2023-03-31T08:12:52;99566.38;;;13.02;77.50
76726;BME280;65651;53.154;17.916;2023-03-31T08:15:19;99566.09;;;13.22;77.15
76726;BME280;65651;53.154;17.916;2023-03-31T08:17:47;99562.11;;;13.30;76.85
76726;BME280;65651;53.154;17.916;2023-03-31T08:20:15;99561.44;;;13.29;76.96
76726;BME280;65651;53.154;17.916;2023-03-31T08:22:42;99563.64;;;13.26;76.54
76726;BME280;65651;53.154;17.916;2023-03-31T08:25:10;99555.95;;;13.25;76.24
76726;BME280;65651;53.154;17.916;2023-03-31T08:27:39;99548.02;;;13.46;76.13
76726;BME280;65651;53.154;17.916;2023-03-31T08:30:08;99541.77;;;13.58;75.68
76726;BME280;65651;53.154;17.916;2023-03-31T08:32:36;99537.16;;;13.85;75.65
76726;BME280;65651;53.154;17.916;2023-03-31T08:35:05;99537.84;;;14.29;74.87
76726;BME280;65651;53.154;17.916;2023-03-31T08:37:32;99547.90;;;14.49;74.12
76726;BME280;65651;53.154;17.916;2023-03-31T08:39:59;99554.39;;;14.25;74.08
76726;BME280;65651;53.154;17.916;2023-03-31T08:42:44;99552.02;;;14.06;73.62
76726;BME280;65651;53.154;17.916;2023-03-31T08:45:38;99548.33;;;13.81;73.71
76726;BME280;65651;53.154;17.916;2023-03-31T08:50:56;99547.64;;;13.27;73.57
76726;BME280;65651;53.154;17.916;2023-03-31T08:53:43;99551.20;;;13.04;73.56
76726;BME280;65651;53.154;17.916;2023-03-31T08:56:16;99549.09;;;12.90;73.78
76726;BME280;65651;53.154;17.916;2023-03-31T08:58:47;99545.67;;;12.92;74.16
76726;BME280;65651;53.154;17.916;2023-03-31T09:04:11;99545.30;;;13.08;73.98
76726;BME280;65651;53.154;17.916;2023-03-31T09:06:58;99548.33;;;13.11;73.77
76726;BME280;65651;53.154;17.916;2023-03-31T09:13:05;99526.41;;;13.13;72.74
76726;BME280;65651;53.154;17.916;2023-03-31T09:16:19;99526.64;;;13.48;72.75
76726;BME280;65651;53.154;17.916;2023-03-31T09:18:44;99529.42;;;13.93;72.60
76726;BME280;65651;53.154;17.916;2023-03-31T09:21:40;99523.39;;;14.08;72.43
76726;BME280;65651;53.154;17.916;2023-03-31T09:24:46;99530.15;;;14.30;71.37
76726;BME280;65651;53.154;17.916;2023-03-31T09:27:16;99528.66;;;14.26;71.05
76726;BME280;65651;53.154;17.916;2023-03-31T09:29:57;99524.03;;;14.00;70.92
76726;BME280;65651;53.154;17.916;2023-03-31T09:32:32;99522.48;;;14.05;70.55
76726;BME280;65651;53.154;17.916;2023-03-31T09:35:22;99515.23;;;14.49;70.53
76726;BME280;65651;53.154;17.916;2023-03-31T09:37:52;99508.38;;;15.72;69.14
76726;BME280;65651;53.154;17.916;2023-03-31T09:40:22;99507.29;;;16.40;68.22
76726;BME280;65651;53.154;17.916;2023-03-31T09:43:03;99494.92;;;17.90;67.12
76726;BME280;65651;53.154;17.916;2023-03-31T09:45:31;99490.34;;;18.61;66.29
76726;BME280;65651;53.154;17.916;2023-03-31T09:48:11;99491.70;;;20.20;63.95
76726;BME280;65651;53.154;17.916;2023-03-31T09:50:45;99496.01;;;20.29;61.67
76726;BME280;65651;53.154;17.916;2023-03-31T09:53:21;99490.24;;;20.79;60.38
76726;BME280;65651;53.154;17.916;2023-03-31T09:55:53;99491.35;;;19.36;61.38
76726;BME280;65651;53.154;17.916;2023-03-31T09:58:24;99488.60;;;19.30;61.46
76726;BME280;65651;53.154;17.916;2023-03-31T10:01:01;99485.64;;;19.46;60.66
76726;BME280;65651;53.154;17.916;2023-03-31T10:03:29;99483.58;;;18.86;60.28
76726;BME280;65651;53.154;17.916;2023-03-31T10:06:09;99484.63;;;18.52;59.01
76726;BME280;65651;53.154;17.916;2023-03-31T10:08:40;99479.07;;;18.50;59.85
76726;BME280;65651;53.154;17.916;2023-03-31T10:11:10;99474.71;;;18.67;59.82
76726;BME280;65651;53.154;17.916;2023-03-31T10:13:48;99474.61;;;18.78;58.72
76726;BME280;65651;53.154;17.916;2023-03-31T10:16:29;99471.94;;;18.54;58.32
76726;BME280;65651;53.154;17.916;2023-03-31T10:21:58;99466.56;;;17.52;57.74
76726;BME280;65651;53.154;17.916;2023-03-31T10:24:36;99459.94;;;16.89;58.66
76726;BME280;65651;53.154;17.916;2023-03-31T10:27:07;99453.59;;;16.79;58.92
76726;BME280;65651;53.154;17.916;2023-03-31T10:29:40;99451.48;;;16.61;58.60
76726;BME280;65651;53.154;17.916;2023-03-31T10:32:26;99453.82;;;16.56;58.95
76726;BME280;65651;53.154;17.916;2023-03-31T10:35:05;99449.66;;;16.49;58.65
76726;BME280;65651;53.154;17.916;2023-03-31T10:37:35;99449.39;;;16.19;58.70
76726;BME280;65651;53.154;17.916;2023-03-31T10:40:17;99444.93;;;15.85;59.15
76726;BME280;65651;53.154;17.916;2023-03-31T10:42:49;99445.80;;;15.51;59.28
76726;BME280;65651;53.154;17.916;2023-03-31T10:45:29;99445.96;;;15.13;59.60
76726;BME280;65651;53.154;17.916;2023-03-31T10:47:59;99442.52;;;14.94;59.73
76726;BME280;65651;53.154;17.916;2023-03-31T10:50:33;99442.57;;;14.98;59.90
76726;BME280;65651;53.154;17.916;2023-03-31T10:53:10;99441.52;;;15.07;59.94
76726;BME280;65651;53.154;17.916;2023-03-31T10:55:44;99436.25;;;15.18;59.86
76726;BME280;65651;53.154;17.916;2023-03-31T11:01:05;99435.89;;;15.36;60.17
76726;BME280;65651;53.154;17.916;2023-03-31T11:15:28;99425.84;;;16.47;59.18
76726;BME280;65651;53.154;17.916;2023-03-31T11:23:49;99401.04;;;17.05;57.78
76726;BME280;65651;53.154;17.916;2023-03-31T11:29:49;99397.63;;;17.29;56.91
76726;BME280;65651;53.154;17.916;2023-03-31T11:38:10;99386.51;;;16.93;56.30
76726;BME280;65651;53.154;17.916;2023-03-31T11:48:58;99366.11;;;16.82;56.15
76726;BME280;65651;53.154;17.916;2023-03-31T11:54:24;99359.54;;;16.60;56.71
76726;BME280;65651;53.154;17.916;2023-03-31T11:56:54;99358.88;;;16.46;56.42
76726;BME280;65651;53.154;17.916;2023-03-31T11:59:24;99351.42;;;16.27;56.75
76726;BME280;65651;53.154;17.916;2023-03-31T12:02:40;99347.89;;;16.22;56.77
76726;BME280;65651;53.154;17.916;2023-03-31T12:05:12;99344.18;;;16.34;56.78
76726;BME280;65651;53.154;17.916;2023-03-31T12:08:25;99345.42;;;16.42;56.71
76726;BME280;65651;53.154;17.916;2023-03-31T12:10:49;99339.29;;;16.54;56.54
76726;BME280;65651;53.154;17.916;2023-03-31T12:16:08;99331.62;;;16.80;56.03
76726;BME280;65651;53.154;17.916;2023-03-31T12:18:45;99329.31;;;16.87;55.54
76726;BME280;65651;53.154;17.916;2023-03-31T12:21:16;99325.35;;;16.79;55.44
76726;BME280;65651;53.154;17.916;2023-03-31T12:23:44;99322.51;;;16.66;55.26
76726;BME280;65651;53.154;17.916;2023-03-31T12:26:22;99323.91;;;16.42;55.16
76726;BME280;65651;53.154;17.916;2023-03-31T12:28:57;99322.59;;;16.18;55.43
76726;BME280;65651;53.154;17.916;2023-03-31T12:31:27;99316.98;;;16.17;55.95
76726;BME280;65651;53.154;17.916;2023-03-31T12:34:03;99320.06;;;16.19;55.84
76726;BME280;65651;53.154;17.916;2023-03-31T12:42:09;99312.84;;;16.29;55.26
76726;BME280;65651;53.154;17.916;2023-03-31T12:45:01;99305.79;;;16.37;55.35
76726;BME280;65651;53.154;17.916;2023-03-31T12:50:47;99298.73;;;16.47;55.05
76726;BME280;65651;53.154;17.916;2023-03-31T12:55:46;99293.00;;;16.38;54.80
76726;BME280;65651;53.154;17.916;2023-03-31T13:01:21;99286.84;;;16.50;54.69
76726;BME280;65651;53.154;17.916;2023-03-31T13:04:19;99280.73;;;16.38;54.68
76726;BME280;65651;53.154;17.916;2023-03-31T13:06:51;99277.73;;;16.33;54.77
76726;BME280;65651;53.154;17.916;2023-03-31T13:09:41;99271.11;;;16.23;55.00
76726;BME280;65651;53.154;17.916;2023-03-31T13:12:18;99271.92;;;16.12;55.05
76726;BME280;65651;53.154;17.916;2023-03-31T13:14:49;99269.80;;;16.11;55.28
76726;BME280;65651;53.154;17.916;2023-03-31T13:19:52;99269.11;;;16.01;55.30
76726;BME280;65651;53.154;17.916;2023-03-31T13:22:32;99260.94;;;16.03;55.31
76726;BME280;65651;53.154;17.916;2023-03-31T13:27:53;99252.10;;;16.05;55.34
76726;BME280;65651;53.154;17.916;2023-03-31T13:33:14;99240.84;;;16.20;55.17
76726;BME280;65651;53.154;17.916;2023-03-31T13:35:48;99233.13;;;16.06;55.23
76726;BME280;65651;53.154;17.916;2023-03-31T13:52:31;99210.63;;;15.56;56.53
76726;BME280;65651;53.154;17.916;2023-03-31T13:58:15;99215.20;;;15.71;56.66
76726;BME280;65651;53.154;17.916;2023-03-31T14:03:21;99197.39;;;15.82;56.34
76726;BME280;65651;53.154;17.916;2023-03-31T14:05:59;99194.90;;;15.89;56.40
76726;BME280;65651;53.154;17.916;2023-03-31T14:11:29;99187.67;;;16.08;56.37
76726;BME280;65651;53.154;17.916;2023-03-31T14:14:06;99183.49;;;16.17;56.27
76726;BME280;65651;53.154;17.916;2023-03-31T14:16:39;99175.31;;;16.24;56.18
76726;BME280;65651;53.154;17.916;2023-03-31T14:28:12;99168.59;;;16.20;56.17
76726;BME280;65651;53.154;17.916;2023-03-31T14:33:45;99157.73;;;16.15;56.32
76726;BME280;65651;53.154;17.916;2023-03-31T14:38:48;99146.46;;;16.25;55.89
76726;BME280;65651;53.154;17.916;2023-03-31T14:41:19;99144.57;;;16.07;55.67
76726;BME280;65651;53.154;17.916;2023-03-31T14:43:49;99145.33;;;15.90;55.78
76726;BME280;65651;53.154;17.916;2023-03-31T14:46:19;99142.23;;;15.69;55.81
76726;BME280;65651;53.154;17.916;2023-03-31T14:48:49;99141.48;;;15.44;56.10
76726;BME280;65651;53.154;17.916;2023-03-31T14:51:25;99146.00;;;15.20;56.60
76726;BME280;65651;53.154;17.916;2023-03-31T14:53:57;99148.37;;;14.92;57.21
76726;BME280;65651;53.154;17.916;2023-03-31T14:56:33;99151.13;;;14.53;57.90
76726;BME280;65651;53.154;17.916;2023-03-31T14:59:05;99152.25;;;14.17;59.05
76726;BME280;65651;53.154;17.916;2023-03-31T15:01:35;99152.06;;;13.90;60.65
76726;BME280;65651;53.154;17.916;2023-03-31T15:04:10;99144.69;;;13.66;61.81
76726;BME280;65651;53.154;17.916;2023-03-31T15:06:40;99140.28;;;13.47;62.51
76726;BME280;65651;53.154;17.916;2023-03-31T15:09:14;99139.56;;;13.37;62.97
76726;BME280;65651;53.154;17.916;2023-03-31T15:11:45;99137.92;;;13.36;63.26
76726;BME280;65651;53.154;17.916;2023-03-31T15:14:13;99142.02;;;13.36;63.36
76726;BME280;65651;53.154;17.916;2023-03-31T15:16:42;99141.66;;;13.35;63.96
76726;BME280;65651;53.154;17.916;2023-03-31T15:19:16;99139.27;;;13.31;64.04
76726;BME280;65651;53.154;17.916;2023-03-31T15:21:45;99135.56;;;13.31;64.34
76726;BME280;65651;53.154;17.916;2023-03-31T15:24:15;99133.54;;;13.30;64.67
76726;BME280;65651;53.154;17.916;2023-03-31T15:29:37;99133.35;;;13.28;65.36
76726;BME280;65651;53.154;17.916;2023-03-31T15:32:13;99133.17;;;13.26;65.70
76726;BME280;65651;53.154;17.916;2023-03-31T15:34:42;99135.05;;;13.21;65.94
76726;BME280;65651;53.154;17.916;2023-03-31T15:37:12;99130.97;;;13.14;66.44
76726;BME280;65651;53.154;17.916;2023-03-31T15:39:43;99130.69;;;13.11;66.38
76726;BME280;65651;53.154;17.916;2023-03-31T15:42:12;99127.75;;;13.13;66.33
76726;BME280;65651;53.154;17.916;2023-03-31T15:47:16;99120.81;;;13.14;66.80
76726;BME280;65651;53.154;17.916;2023-03-31T15:50:07;99117.76;;;13.12;66.88
76726;BME280;65651;53.154;17.916;2023-03-31T15:52:49;99112.94;;;13.13;67.09
76726;BME280;65651;53.154;17.916;2023-03-31T15:55:29;99112.77;;;13.16;66.92
76726;BME280;65651;53.154;17.916;2023-03-31T15:57:59;99111.19;;;13.28;67.01
76726;BME280;65651;53.154;17.916;2023-03-31T16:03:02;99110.06;;;13.45;67.09
76726;BME280;65651;53.154;17.916;2023-03-31T16:05:41;99108.36;;;13.54;67.03
76726;BME280;65651;53.154;17.916;2023-03-31T16:08:17;99110.63;;;13.59;67.11
76726;BME280;65651;53.154;17.916;2023-03-31T16:10:47;99109.84;;;13.61;67.01